createdAt,value
2018-02-10T00:01:48.158Z,69.20
2018-02-10T00:04:16.238Z,88.20
2018-02-10T00:06:44.726Z,79.03
2018-02-10T00:09:12.901Z,86.73
2018-02-10T00:11:40.943Z,88.97
2018-02-10T00:14:09.811Z,84.23
2018-02-10T00:16:37.890Z,86.07
2018-02-10T00:19:05.958Z,90.00
2018-02-10T00:21:34.035Z,85.87
2018-02-10T00:24:02.117Z,77.13
2018-02-10T00:26:30.193Z,98.32
2018-02-10T00:28:58.251Z,89.17
2018-02-10T00:31:27.073Z,93.50
2018-02-10T00:33:55.233Z,85.13
2018-02-10T00:36:25.186Z,86.53
2018-02-10T00:38:55.134Z,83.57
2018-02-10T00:41:24.313Z,84.40
2018-02-10T00:43:54.285Z,74.63
2018-02-10T00:46:22.361Z,73.37
2018-02-10T00:48:50.439Z,93.43
2018-02-10T00:51:18.507Z,76.40
2018-02-10T00:53:46.600Z,75.35
2018-02-10T00:56:14.773Z,75.23
2018-02-10T00:58:42.825Z,72.50
2018-02-10T01:01:10.893Z,84.23
2018-02-10T01:03:38.952Z,96.40
2018-02-10T01:06:07.829Z,88.27
2018-02-10T01:08:35.841Z,79.43
2018-02-10T01:11:03.916Z,81.23
2018-02-10T01:13:31.968Z,94.83
2018-02-10T01:16:00.805Z,82.63
2018-02-10T01:18:28.924Z,107.37
2018-02-10T01:20:56.985Z,85.67
2018-02-10T01:23:25.046Z,83.90
2018-02-10T01:25:53.126Z,74.63
2018-02-10T01:28:21.305Z,79.57
2018-02-10T01:30:49.358Z,93.77
2018-02-10T01:33:17.421Z,84.17
2018-02-10T01:35:45.486Z,80.67
2018-02-10T01:38:13.609Z,96.03
2018-02-10T01:40:41.671Z,90.60
2018-02-10T01:43:09.749Z,74.13
2018-02-10T01:45:37.817Z,83.57
2018-02-10T01:48:05.882Z,84.13
2018-02-10T01:50:33.943Z,86.73
2018-02-10T01:53:01.997Z,97.47
2018-02-10T01:55:30.849Z,108.47
2018-02-10T01:57:58.938Z,103.00
2018-02-10T02:00:27.013Z,106.00
2018-02-10T02:02:55.294Z,86.47
2018-02-10T02:05:23.362Z,99.73
2018-02-10T02:07:51.445Z,91.07
2018-02-10T02:10:19.512Z,105.83
2018-02-10T02:12:47.597Z,97.53
2018-02-10T02:15:15.672Z,88.47
2018-02-10T02:17:43.730Z,96.53
2018-02-10T02:20:11.796Z,96.40
2018-02-10T02:22:39.897Z,84.57
2018-02-10T02:25:07.949Z,87.87
2018-02-10T02:27:36.054Z,94.13
2018-02-10T02:30:04.109Z,105.00
2018-02-10T02:32:32.208Z,82.07
2018-02-10T02:35:00.281Z,112.22
2018-02-10T02:37:28.460Z,92.03
2018-02-10T02:39:56.523Z,97.17
2018-02-10T02:42:25.784Z,108.85
2018-02-10T02:44:53.830Z,91.53
2018-02-10T02:47:21.893Z,92.07
2018-02-10T02:49:49.965Z,103.37
2018-02-10T02:52:18.056Z,90.97
2018-02-10T02:54:46.129Z,95.20
2018-02-10T02:57:14.206Z,105.80
2018-02-10T02:59:42.269Z,89.03
2018-02-10T03:02:10.357Z,86.87
2018-02-10T03:04:38.530Z,95.40
2018-02-10T03:07:06.601Z,96.40
2018-02-10T03:09:34.685Z,97.00
2018-02-10T03:12:02.753Z,89.15
2018-02-10T03:14:30.813Z,95.80
2018-02-10T03:16:58.882Z,94.30
2018-02-10T03:19:26.982Z,80.10
2018-02-10T03:21:56.697Z,83.22
2018-02-10T03:24:25.877Z,79.50
2018-02-10T03:26:53.942Z,80.18
2018-02-10T03:29:22.113Z,88.67
2018-02-10T03:31:50.131Z,78.70
2018-02-10T03:34:18.689Z,74.87
2018-02-10T03:36:46.750Z,86.17
2018-02-10T03:39:14.802Z,78.67
2018-02-10T03:41:43.630Z,78.30
2018-02-10T03:44:11.742Z,80.70
2018-02-10T03:46:39.801Z,94.63
2018-02-10T03:49:08.345Z,86.68
2018-02-10T03:51:37.197Z,81.37
2018-02-10T03:54:05.289Z,85.27
2018-02-10T03:56:33.355Z,87.03
2018-02-10T03:59:01.423Z,87.07
2018-02-10T04:01:29.487Z,78.47
2018-02-10T04:03:57.548Z,74.20
2018-02-10T04:06:26.360Z,84.90
2018-02-10T04:08:54.421Z,90.50
2018-02-10T04:11:22.521Z,95.63
2018-02-10T04:13:50.589Z,79.10
2018-02-10T04:16:18.645Z,79.13
2018-02-10T04:18:46.745Z,82.30
2018-02-10T04:21:14.808Z,88.10
2018-02-10T04:23:42.875Z,74.27
2018-02-10T04:26:10.979Z,88.37
2018-02-10T04:28:39.053Z,78.03
2018-02-10T04:31:07.145Z,90.93
2018-02-10T04:33:35.305Z,75.23
2018-02-10T04:36:03.367Z,78.23
2018-02-10T04:38:31.433Z,78.65
2018-02-10T04:40:59.499Z,74.75
2018-02-10T04:43:27.617Z,68.00
2018-02-10T04:45:56.618Z,87.37
2018-02-10T04:48:24.695Z,68.67
2018-02-10T04:50:52.762Z,77.83
2018-02-10T04:53:20.818Z,79.90
2018-02-10T04:55:48.901Z,72.57
2018-02-10T04:58:16.964Z,95.10
2018-02-10T05:00:45.035Z,66.17
2018-02-10T05:03:13.103Z,88.97
2018-02-10T05:05:41.938Z,81.47
2018-02-10T05:08:09.998Z,66.80
2018-02-10T05:10:38.082Z,67.33
2018-02-10T05:13:06.141Z,73.43
2018-02-10T05:15:34.348Z,78.17
2018-02-10T05:18:02.430Z,78.07
2018-02-10T05:20:30.549Z,76.13
2018-02-10T05:22:59.401Z,63.77
2018-02-10T05:25:27.472Z,66.40
2018-02-10T05:27:55.561Z,76.30
2018-02-10T05:30:23.643Z,74.63
2018-02-10T05:32:52.498Z,76.50
2018-02-10T05:35:20.598Z,62.10
2018-02-10T05:37:48.653Z,72.93
2018-02-10T05:40:16.754Z,67.53
2018-02-10T05:42:44.818Z,78.45
2018-02-10T05:45:12.885Z,90.10
2018-02-10T05:47:40.973Z,74.30
2018-02-10T05:50:09.046Z,60.60
2018-02-10T05:52:37.114Z,82.35
2018-02-10T05:55:05.198Z,63.67
2018-02-10T05:57:33.286Z,78.47
2018-02-10T06:00:01.472Z,76.97
2018-02-10T06:02:29.538Z,63.73
2018-02-10T06:04:57.581Z,79.30
2018-02-10T06:07:25.637Z,63.27
2018-02-10T06:09:54.477Z,65.30
2018-02-10T06:12:22.547Z,64.33
2018-02-10T06:14:50.608Z,70.90
2018-02-10T06:17:18.713Z,74.60
2018-02-10T06:19:46.773Z,75.23
2018-02-10T06:22:14.830Z,70.63
2018-02-10T06:24:42.881Z,65.17
2018-02-10T06:27:11.722Z,70.20
2018-02-10T06:29:40.504Z,63.27
2018-02-10T06:32:08.567Z,60.10
2018-02-10T06:34:36.652Z,65.87
2018-02-10T06:37:04.710Z,64.70
2018-02-10T06:39:32.762Z,60.90
2018-02-10T06:42:01.610Z,72.97
2018-02-10T06:44:29.670Z,59.45
2018-02-10T06:46:57.741Z,63.03
2018-02-10T06:49:25.792Z,60.13
2018-02-10T06:51:54.631Z,67.43
2018-02-10T06:54:22.689Z,68.62
2018-02-10T06:56:50.797Z,60.03
2018-02-10T06:59:18.866Z,69.60
2018-02-10T07:01:46.915Z,61.63
2018-02-10T07:04:15.034Z,70.20
2018-02-10T07:06:43.110Z,67.83
2018-02-10T07:09:11.189Z,64.07
2018-02-10T07:11:39.291Z,62.37
2018-02-10T07:14:07.323Z,67.60
2018-02-10T07:16:35.405Z,72.70
2018-02-10T07:19:03.489Z,58.07
2018-02-10T07:21:31.549Z,65.67
2018-02-10T07:23:59.621Z,61.90
2018-02-10T07:26:28.442Z,63.78
2018-02-10T07:28:56.509Z,80.60
2018-02-10T07:31:24.570Z,66.10
2018-02-10T07:33:52.656Z,58.10
2018-02-10T07:36:20.718Z,69.70
2018-02-10T07:38:48.810Z,60.37
2018-02-10T07:41:16.869Z,58.20
2018-02-10T07:43:44.929Z,61.47
2018-02-10T07:46:12.978Z,86.83
2018-02-10T07:48:41.801Z,66.73
2018-02-10T07:51:09.854Z,62.13
2018-02-10T07:53:38.688Z,61.10
2018-02-10T07:56:06.748Z,64.85
2018-02-10T07:58:34.809Z,64.73
2018-02-10T08:01:02.866Z,68.83
2018-02-10T08:03:31.700Z,55.00
2018-02-10T08:05:59.763Z,45.60
2018-02-10T08:08:28.906Z,55.86
2018-02-10T08:10:56.977Z,61.33
2018-02-10T08:13:25.036Z,55.00
2018-02-10T08:15:53.095Z,53.30
2018-02-10T08:18:21.193Z,63.33
2018-02-10T08:20:49.258Z,69.70
2018-02-10T08:23:17.324Z,66.77
2018-02-10T08:25:45.459Z,53.67
2018-02-10T08:28:13.618Z,56.15
2018-02-10T08:30:41.691Z,61.57
2018-02-10T08:33:09.753Z,57.27
2018-02-10T08:35:37.823Z,66.73
2018-02-10T08:38:05.878Z,63.70
2018-02-10T08:40:33.950Z,61.20
2018-02-10T08:43:02.065Z,65.28
2018-02-10T08:45:30.133Z,57.53
2018-02-10T08:47:59.161Z,61.37
2018-02-10T08:50:27.326Z,61.63
2018-02-10T08:52:55.388Z,71.20
2018-02-10T08:55:23.472Z,59.50
2018-02-10T08:57:51.558Z,69.20
2018-02-10T09:00:20.126Z,62.27
2018-02-10T09:02:48.181Z,58.50
2018-02-10T09:05:16.293Z,55.60
2018-02-10T09:07:44.349Z,62.90
2018-02-10T09:10:12.461Z,74.23
2018-02-10T09:12:40.505Z,55.23
2018-02-10T09:15:08.561Z,61.50
2018-02-10T09:17:37.500Z,72.67
2018-02-10T09:20:05.570Z,69.67
2018-02-10T09:22:33.633Z,69.10
2018-02-10T09:25:01.708Z,58.47
2018-02-10T09:27:29.804Z,51.28
2018-02-10T09:29:57.849Z,56.77
2018-02-10T09:32:26.050Z,54.30
2018-02-10T09:34:54.152Z,59.10
2018-02-10T09:37:22.301Z,60.37
2018-02-10T09:39:50.365Z,54.63
2018-02-10T09:42:18.565Z,50.17
2018-02-10T09:44:46.625Z,54.00
2018-02-10T09:47:14.813Z,54.73
2018-02-10T09:49:42.858Z,48.25
2018-02-10T09:52:10.991Z,56.47
2018-02-10T09:54:39.054Z,57.47
2018-02-10T09:57:07.110Z,61.60
2018-02-10T09:59:35.198Z,57.20
2018-02-10T10:02:03.623Z,74.40
2018-02-10T10:04:32.481Z,60.73
2018-02-10T10:07:00.553Z,77.03
2018-02-10T10:09:28.726Z,67.07
2018-02-10T10:11:56.810Z,76.43
2018-02-10T10:14:24.877Z,70.27
2018-02-10T10:16:52.967Z,61.47
2018-02-10T10:19:21.077Z,66.67
2018-02-10T10:21:49.897Z,62.10
2018-02-10T10:24:17.974Z,57.30
2018-02-10T10:26:46.026Z,59.87
2018-02-10T10:29:14.945Z,54.50
2018-02-10T10:31:42.981Z,66.23
2018-02-10T10:34:11.054Z,55.53
2018-02-10T10:36:39.126Z,46.17
2018-02-10T10:39:07.281Z,50.60
2018-02-10T10:41:35.333Z,50.07
2018-02-10T10:44:03.401Z,46.58
2018-02-10T10:46:31.454Z,48.83
2018-02-10T10:49:00.518Z,50.88
2018-02-10T10:51:28.563Z,42.50
2018-02-10T10:53:56.626Z,41.00
2018-02-10T10:56:24.682Z,51.20
2018-02-10T10:58:53.529Z,43.53
2018-02-10T11:01:21.616Z,54.87
2018-02-10T11:03:49.792Z,50.23
2018-02-10T11:06:17.857Z,49.57
2018-02-10T11:08:45.926Z,43.43
2018-02-10T11:11:13.983Z,37.63
2018-02-10T11:13:42.102Z,40.28
2018-02-10T11:16:10.166Z,54.73
2018-02-10T11:18:38.249Z,43.50
2018-02-10T11:21:06.322Z,37.37
2018-02-10T11:23:34.398Z,40.97
2018-02-10T11:26:02.461Z,37.83
2018-02-10T11:28:31.549Z,36.45
2018-02-10T11:31:00.729Z,35.90
2018-02-10T11:33:28.846Z,32.60
2018-02-10T11:35:56.954Z,34.10
2018-02-10T11:38:25.025Z,35.20
2018-02-10T11:40:53.101Z,37.33
2018-02-10T11:43:21.445Z,42.00
2018-02-10T11:45:49.534Z,35.70
2018-02-10T11:48:18.190Z,45.17
2018-02-10T11:50:46.253Z,37.87
2018-02-10T11:53:15.105Z,34.33
2018-02-10T11:55:43.174Z,42.73
2018-02-10T11:58:11.242Z,42.23
2018-02-10T12:00:39.317Z,39.30
2018-02-10T12:03:07.387Z,46.33
2018-02-10T12:05:35.451Z,39.28
2018-02-10T12:08:03.535Z,42.23
2018-02-10T12:10:32.453Z,41.93
2018-02-10T12:13:01.973Z,46.30
2018-02-10T12:15:31.169Z,42.17
2018-02-10T12:17:59.231Z,39.33
2018-02-10T12:20:27.319Z,36.10
2018-02-10T12:22:55.385Z,36.80
2018-02-10T12:25:23.463Z,36.70
2018-02-10T12:27:51.526Z,29.80
2018-02-10T12:30:19.611Z,33.57
2018-02-10T12:32:47.665Z,37.70
2018-02-10T12:35:15.732Z,37.03
2018-02-10T12:37:43.805Z,35.43
2018-02-10T12:40:12.145Z,35.23
2018-02-10T12:42:40.222Z,42.53
2018-02-10T12:45:08.293Z,27.50
2018-02-10T12:50:37.775Z,34.60
2018-02-10T12:53:05.847Z,29.10
2018-02-10T12:55:33.911Z,35.80
2018-02-10T12:58:01.987Z,34.93
2018-02-10T13:00:30.060Z,26.07
2018-02-10T13:02:58.901Z,33.77
2018-02-10T13:05:27.826Z,44.40
2018-02-10T13:07:55.966Z,34.07
2018-02-10T13:10:24.040Z,29.33
2018-02-10T13:12:52.102Z,30.57
2018-02-10T13:15:20.817Z,33.07
2018-02-10T13:17:48.907Z,30.47
2018-02-10T13:20:16.957Z,35.83
2018-02-10T13:22:45.048Z,37.40
2018-02-10T13:25:13.117Z,35.63
2018-02-10T13:27:41.185Z,32.67
2018-02-10T13:30:09.263Z,34.13
2018-02-10T13:32:37.384Z,34.63
2018-02-10T13:35:06.213Z,31.37
2018-02-10T13:37:34.293Z,42.43
2018-02-10T13:40:02.835Z,37.40
2018-02-10T13:42:31.895Z,38.50
2018-02-10T13:44:59.965Z,35.87
2018-02-10T13:47:28.038Z,34.73
2018-02-10T13:49:56.081Z,35.73
2018-02-10T13:52:24.204Z,30.70
2018-02-10T13:54:52.277Z,40.83
2018-02-10T13:57:20.352Z,40.80
2018-02-10T13:59:48.420Z,31.30
2018-02-10T14:02:16.517Z,36.67
2018-02-10T14:04:44.614Z,38.50
2018-02-10T14:07:12.773Z,30.63
2018-02-10T14:09:40.853Z,38.70
2018-02-10T14:12:08.913Z,37.33
2018-02-10T14:14:36.966Z,31.00
2018-02-10T14:17:05.038Z,30.83
2018-02-10T14:19:33.094Z,38.43
2018-02-10T14:22:03.051Z,24.35
2018-02-10T14:24:32.693Z,37.73
2018-02-10T14:27:00.753Z,38.37
2018-02-10T14:29:28.814Z,40.03
2018-02-10T14:31:56.898Z,31.07
2018-02-10T14:34:24.954Z,32.87
2018-02-10T14:36:53.062Z,42.30
2018-02-10T14:39:21.238Z,47.53
2018-02-10T14:41:49.697Z,36.27
2018-02-10T14:44:17.788Z,47.67
2018-02-10T14:46:45.854Z,37.70
2018-02-10T14:49:13.953Z,37.93
2018-02-10T14:51:42.014Z,39.13
2018-02-10T14:54:10.093Z,31.87
2018-02-10T14:56:38.149Z,36.13
2018-02-10T14:59:06.264Z,35.53
2018-02-10T15:01:34.274Z,32.90
2018-02-10T15:04:03.519Z,39.25
2018-02-10T15:06:33.558Z,46.03
2018-02-10T15:09:02.765Z,44.20
2018-02-10T15:11:30.814Z,37.47
2018-02-10T15:13:58.887Z,42.23
2018-02-10T15:16:26.937Z,38.40
2018-02-10T15:18:55.790Z,43.53
2018-02-10T15:21:23.887Z,39.25
2018-02-10T15:23:51.952Z,38.43
2018-02-10T15:26:20.014Z,39.77
2018-02-10T15:28:48.085Z,35.83
2018-02-10T15:31:26.110Z,44.40
2018-02-10T15:34:12.118Z,39.70
2018-02-10T15:36:40.942Z,46.93
2018-02-10T15:39:09.009Z,45.83
2018-02-10T15:41:37.068Z,48.05
2018-02-10T15:44:05.929Z,48.93
2018-02-10T15:46:34.095Z,45.20
2018-02-10T15:49:03.111Z,48.55
2018-02-10T15:51:31.169Z,46.27
2018-02-10T15:53:59.333Z,45.30
2018-02-10T15:56:27.389Z,37.30
2018-02-10T15:58:55.463Z,51.47
2018-02-10T16:01:23.587Z,52.17
2018-02-10T16:03:51.654Z,42.50
2018-02-10T16:06:19.723Z,52.97
2018-02-10T16:08:47.782Z,54.83
2018-02-10T16:11:15.866Z,55.37
2018-02-10T16:13:43.950Z,59.93
2018-02-10T16:16:12.011Z,63.60
2018-02-10T16:18:40.095Z,46.80
2018-02-10T16:21:08.177Z,48.38
2018-02-10T16:23:36.236Z,51.27
2018-02-10T16:26:04.346Z,56.30
2018-02-10T16:28:33.566Z,54.95
2018-02-10T16:31:01.623Z,42.57
2018-02-10T16:33:29.676Z,54.70
2018-02-10T16:35:57.745Z,45.50
2018-02-10T16:38:25.832Z,61.10
2018-02-10T16:40:53.925Z,48.23
2018-02-10T16:43:22.010Z,60.73
2018-02-10T16:45:50.090Z,72.43
2018-02-10T16:48:18.253Z,52.40
2018-02-10T16:50:46.435Z,59.57
2018-02-10T16:53:14.501Z,49.30
2018-02-10T16:55:42.561Z,50.47
2018-02-10T16:58:10.663Z,50.60
2018-02-10T17:00:39.670Z,50.85
2018-02-10T17:03:07.733Z,51.92
2018-02-10T17:05:35.922Z,53.95
2018-02-10T17:08:03.973Z,52.37
2018-02-10T17:10:32.060Z,58.47
2018-02-10T17:13:00.143Z,62.53
2018-02-10T17:15:28.243Z,61.67
2018-02-10T17:17:56.305Z,66.73
2018-02-10T17:20:24.577Z,56.53
2018-02-10T17:22:52.633Z,65.03
2018-02-10T17:25:20.701Z,59.53
2018-02-10T17:27:48.770Z,64.27
2018-02-10T17:30:16.822Z,64.23
2018-02-10T17:32:45.658Z,51.67
2018-02-10T17:35:13.721Z,56.07
2018-02-10T17:37:41.822Z,66.77
2018-02-10T17:40:09.896Z,70.27
2018-02-10T17:42:37.965Z,58.97
2018-02-10T17:45:06.033Z,63.87
2018-02-10T17:47:34.150Z,63.15
2018-02-10T17:50:02.225Z,53.43
2018-02-10T17:52:31.065Z,60.80
2018-02-10T17:54:59.189Z,58.40
2018-02-10T17:57:27.270Z,64.20
2018-02-10T17:59:55.344Z,66.30
2018-02-10T18:02:23.518Z,69.87
2018-02-10T18:04:51.593Z,61.93
2018-02-10T18:07:19.773Z,61.93
2018-02-10T18:09:47.849Z,70.07
2018-02-10T18:12:16.837Z,59.47
2018-02-10T18:14:44.902Z,60.03
2018-02-10T18:17:12.980Z,57.07
2018-02-10T18:19:41.028Z,60.83
2018-02-10T18:22:09.094Z,62.97
2018-02-10T18:24:37.158Z,61.53
2018-02-10T18:27:05.981Z,63.33
2018-02-10T18:29:34.497Z,67.97
2018-02-10T18:32:02.577Z,63.40
2018-02-10T18:34:30.645Z,62.63
2018-02-10T18:36:58.751Z,59.80
2018-02-10T18:39:26.942Z,60.50
2018-02-10T18:41:55.760Z,63.63
2018-02-10T18:44:23.881Z,54.80
2018-02-10T18:46:51.963Z,54.83
2018-02-10T18:49:20.039Z,53.58
2018-02-10T18:51:48.102Z,61.57
2018-02-10T18:54:16.165Z,60.77
2018-02-10T18:56:44.586Z,58.90
2018-02-10T18:59:12.746Z,55.43
2018-02-10T19:01:40.802Z,53.67
2018-02-10T19:04:08.869Z,61.08
2018-02-10T19:06:36.966Z,42.10
2018-02-10T19:09:05.041Z,56.80
2018-02-10T19:11:33.126Z,57.30
2018-02-10T19:14:01.232Z,54.10
2018-02-10T19:16:29.281Z,50.00
2018-02-10T19:18:57.349Z,47.67
2018-02-10T19:21:25.418Z,53.90
2018-02-10T19:23:53.506Z,50.00
2018-02-10T19:26:21.572Z,44.33
2018-02-10T19:28:49.663Z,54.53
2018-02-10T19:31:17.731Z,45.93
2018-02-10T19:33:45.795Z,45.10
2018-02-10T19:36:13.881Z,55.57
2018-02-10T19:38:41.933Z,44.93
2018-02-10T19:41:10.082Z,50.50
2018-02-10T19:43:38.113Z,45.00
2018-02-10T19:46:06.183Z,52.88
2018-02-10T19:48:35.705Z,42.47
2018-02-10T19:51:03.765Z,52.45
2018-02-10T19:53:31.874Z,42.43
2018-02-10T19:55:59.938Z,41.10
2018-02-10T19:58:28.018Z,31.27
2018-02-10T20:00:56.077Z,36.30
2018-02-10T20:03:24.148Z,41.37
2018-02-10T20:05:52.238Z,42.77
2018-02-10T20:08:20.325Z,39.93
2018-02-10T20:10:48.511Z,35.28
2018-02-10T20:13:16.550Z,27.13
2018-02-10T20:15:44.609Z,40.00
2018-02-10T20:18:12.684Z,33.13
2018-02-10T20:20:40.798Z,38.40
2018-02-10T20:23:08.864Z,38.73
2018-02-10T20:25:37.553Z,47.33
2018-02-10T20:28:05.618Z,33.63
2018-02-10T20:30:33.690Z,35.97
2018-02-10T20:33:01.773Z,33.63
2018-02-10T20:35:29.850Z,34.83
2018-02-10T20:37:57.962Z,34.17
2018-02-10T20:40:26.021Z,39.90
2018-02-10T20:42:54.090Z,37.50
2018-02-10T20:45:22.169Z,31.73
2018-02-10T20:47:50.240Z,35.83
2018-02-10T20:50:18.295Z,27.37
2018-02-10T20:52:46.349Z,35.03
2018-02-10T20:55:15.195Z,31.07
2018-02-10T20:57:43.260Z,27.23
2018-02-10T21:00:11.350Z,35.13
2018-02-10T21:02:39.426Z,31.97
2018-02-10T21:05:07.509Z,29.50
2018-02-10T21:07:35.896Z,41.42
2018-02-10T21:10:03.961Z,37.83
2018-02-10T21:12:32.142Z,33.10
2018-02-10T21:15:00.201Z,29.13
2018-02-10T21:17:28.267Z,25.87
2018-02-10T21:19:56.366Z,32.90
2018-02-10T21:22:24.426Z,30.37
2018-02-10T21:24:52.479Z,26.77
2018-02-10T21:27:20.546Z,35.60
2018-02-10T21:29:48.610Z,30.63
2018-02-10T21:32:17.437Z,31.10
2018-02-10T21:34:45.505Z,34.90
2018-02-10T21:37:13.619Z,38.13
2018-02-10T21:39:41.693Z,34.00
2018-02-10T21:42:09.865Z,32.90
2018-02-10T21:44:38.345Z,30.33
2018-02-10T21:47:06.397Z,31.40
2018-02-10T21:49:34.541Z,32.23
2018-02-10T21:52:03.360Z,31.00
2018-02-10T21:54:31.421Z,38.37
2018-02-10T21:57:00.267Z,34.73
2018-02-10T21:59:28.398Z,36.17
2018-02-10T22:01:57.230Z,24.87
2018-02-10T22:04:25.314Z,31.70
2018-02-10T22:06:53.409Z,25.50
2018-02-10T22:09:21.785Z,33.45
2018-02-10T22:11:49.850Z,33.80
2018-02-10T22:14:17.932Z,33.03
2018-02-10T22:16:46.030Z,33.13
2018-02-10T22:19:14.101Z,30.27
2018-02-10T22:21:42.170Z,29.40
2018-02-10T22:24:10.255Z,37.07
2018-02-10T22:26:38.305Z,28.27
2018-02-10T22:29:06.709Z,26.33
2018-02-10T22:31:34.776Z,38.27
2018-02-10T22:34:02.843Z,31.27
2018-02-10T22:36:31.622Z,35.07
2018-02-10T22:38:59.681Z,28.57
2018-02-10T22:41:27.734Z,24.77
2018-02-10T22:43:56.693Z,26.85
2018-02-10T22:46:24.772Z,32.53
2018-02-10T22:48:52.860Z,29.80
2018-02-10T22:51:20.912Z,24.77
2018-02-10T22:53:48.967Z,31.00
2018-02-10T22:56:17.038Z,28.67
2018-02-10T22:58:45.124Z,26.73
2018-02-10T23:01:17.010Z,24.93
2018-02-10T23:03:45.082Z,26.05
2018-02-10T23:06:13.157Z,26.60
2018-02-10T23:08:41.225Z,26.77
2018-02-10T23:11:09.282Z,32.90
2018-02-10T23:13:37.357Z,27.50
2018-02-10T23:16:05.442Z,28.60
2018-02-10T23:18:33.525Z,31.87
2018-02-10T23:21:01.601Z,25.83
2018-02-10T23:23:30.546Z,23.70
2018-02-10T23:25:59.376Z,22.60
2018-02-10T23:28:27.429Z,27.10
2018-02-10T23:30:56.794Z,28.37
2018-02-10T23:33:24.865Z,24.57
2018-02-10T23:35:52.958Z,25.47
2018-02-10T23:38:21.005Z,25.50
2018-02-10T23:40:49.109Z,26.50
2018-02-10T23:43:17.161Z,29.70
2018-02-10T23:45:45.241Z,22.77
2018-02-10T23:48:13.325Z,21.33
2018-02-10T23:50:41.414Z,25.23
2018-02-10T23:53:09.469Z,27.55
2018-02-10T23:55:37.574Z,24.40
2018-02-10T23:58:05.630Z,25.83
